Time;durP1;ratioP1;P1;durP2;ratioP2;P2;SDS_P1;SDS_P2;PMS_P1;PMS_P2;Temp;Humidity;BMP_temperature;BMP_pressure;BME280_temperature;BME280_humidity;BME280_pressure;Samples;Min_cycle;Max_cycle;Signal;HPM_P1;HPM_P2
2023/07/13 00:00:10;;;;;;;;;;;27.60;46.60;;;;;;3048478;19;5166;-73
2023/07/13 00:01:11;;;;;;;;;;;27.60;46.50;;;;;;3050452;19;4591;-73
2023/07/13 00:02:13;;;;;;;;;;;27.60;46.60;;;;;;3049786;19;5520;-73
2023/07/13 00:03:13;;;;;;;;;;;27.60;46.50;;;;;;3050990;19;5086;-72
2023/07/13 00:04:14;;;;;;;;;;;27.60;46.50;;;;;;3050992;19;802;-73
2023/07/13 00:05:15;;;;;;;;;;;27.60;46.50;;;;;;3054713;19;5073;-73
2023/07/13 00:06:15;;;;;;;;;;;27.50;46.30;;;;;;3053954;19;5172;-73
2023/07/13 00:07:19;;;;;;;;;;;27.60;46.50;;;;;;3053605;19;5102;-73
2023/07/13 00:08:20;;;;;;;;;;;27.60;46.60;;;;;;3053352;19;5070;-73
2023/07/13 00:09:21;;;;;;;;;;;27.60;46.50;;;;;;3054683;19;4612;-73
2023/07/13 00:10:22;;;;;;;;;;;27.60;46.40;;;;;;3052802;19;5076;-69
2023/07/13 00:11:23;;;;;;;;;;;27.50;46.30;;;;;;3053315;19;5414;-69
2023/07/13 00:12:26;;;;;;;;;;;27.60;46.50;;;;;;3053164;19;5412;-68
2023/07/13 00:13:26;;;;;;;;;;;27.60;46.70;;;;;;3053996;19;5166;-69
2023/07/13 00:14:28;;;;;;;;;;;27.60;46.60;;;;;;3052752;19;5240;-69
2023/07/13 00:15:31;;;;;;;;;;;27.60;46.60;;;;;;3054478;19;5177;-69
2023/07/13 00:16:34;;;;;;;;;;;27.60;46.50;;;;;;3056052;19;5223;-69
2023/07/13 00:17:34;;;;;;;;;;;27.60;46.40;;;;;;3055104;19;4977;-68
2023/07/13 00:18:35;;;;;;;;;;;27.50;46.40;;;;;;3056238;19;5134;-68
2023/07/13 00:19:36;;;;;;;;;;;27.60;46.50;;;;;;3058724;19;5283;-69
2023/07/13 00:20:36;;;;;;;;;;;27.60;46.40;;;;;;3057774;19;4485;-68
2023/07/13 00:21:38;;;;;;;;;;;27.60;46.50;;;;;;3057536;19;5253;-68
2023/07/13 00:22:39;;;;;;;;;;;27.50;46.50;;;;;;3054958;19;5191;-69
2023/07/13 00:23:40;;;;;;;;;;;27.60;46.50;;;;;;3054958;19;4618;-69
2023/07/13 00:24:41;;;;;;;;;;;27.50;46.50;;;;;;3054434;19;5083;-69
2023/07/13 00:25:42;;;;;;;;;;;27.50;46.60;;;;;;3054815;19;5103;-69
2023/07/13 00:26:46;;;;;;;;;;;27.50;46.60;;;;;;3053125;19;4526;-69
2023/07/13 00:27:48;;;;;;;;;;;27.50;46.60;;;;;;3054807;19;4986;-69
2023/07/13 00:28:49;;;;;;;;;;;27.50;46.60;;;;;;3052875;19;5163;-69
2023/07/13 00:29:49;;;;;;;;;;;27.50;46.40;;;;;;3052257;19;4450;-69
2023/07/13 00:30:50;;;;;;;;;;;27.50;46.50;;;;;;3053985;19;5141;-67
2023/07/13 00:31:51;;;;;;;;;;;27.50;46.50;;;;;;3053019;19;4918;-69
2023/07/13 00:32:51;;;;;;;;;;;27.50;46.50;;;;;;3053492;19;4491;-69
2023/07/13 00:33:52;;;;;;;;;;;27.50;46.40;;;;;;3054120;19;4566;-69
2023/07/13 00:34:52;;;;;;;;;;;27.30;46.50;;;;;;3053662;19;5058;-69
2023/07/13 00:35:54;;;;;;;;;;;27.50;46.50;;;;;;3054078;19;4918;-69
2023/07/13 00:36:54;;;;;;;;;;;27.50;46.40;;;;;;3052613;19;4432;-68
2023/07/13 00:37:56;;;;;;;;;;;27.50;46.40;;;;;;3053260;19;4821;-69
2023/07/13 00:38:56;;;;;;;;;;;27.50;46.40;;;;;;3053261;19;5294;-69
2023/07/13 00:39:57;;;;;;;;;;;27.50;46.50;;;;;;3053945;19;4485;-69
2023/07/13 00:40:58;;;;;;;;;;;27.50;46.60;;;;;;3052550;19;4256;-69
2023/07/13 00:41:59;;;;;;;;;;;27.50;47.00;;;;;;3053743;19;4530;-68
2023/07/13 00:42:59;;;;;;;;;;;27.50;46.40;;;;;;3052564;19;5256;-68
2023/07/13 00:44:00;;;;;;;;;;;27.50;46.40;;;;;;3052198;19;4379;-69
2023/07/13 00:45:11;;;;;;;;;;;27.50;46.40;;;;;;3052272;19;5115;-68
2023/07/13 00:46:16;;;;;;;;;;;27.50;46.50;;;;;;3052501;19;5167;-69
2023/07/13 00:47:17;;;;;;;;;;;27.50;46.40;;;;;;3053274;19;4616;-69
2023/07/13 00:48:20;;;;;;;;;;;27.50;46.30;;;;;;3052756;19;5093;-68
2023/07/13 00:49:22;;;;;;;;;;;27.50;46.40;;;;;;3052866;19;6080;-69
2023/07/13 00:50:23;;;;;;;;;;;27.40;46.30;;;;;;3052156;19;5281;-68
2023/07/13 00:51:26;;;;;;;;;;;27.50;46.40;;;;;;3051559;19;5000;-69
2023/07/13 00:52:28;;;;;;;;;;;27.50;46.40;;;;;;3051770;19;4607;-68
2023/07/13 00:53:29;;;;;;;;;;;27.50;46.30;;;;;;3052143;19;5232;-68
2023/07/13 00:54:32;;;;;;;;;;;27.50;46.30;;;;;;3052188;19;4669;-69
2023/07/13 00:55:32;;;;;;;;;;;27.50;46.40;;;;;;3051845;19;4413;-69
2023/07/13 00:56:33;;;;;;;;;;;27.50;46.30;;;;;;3051618;19;5162;-68
2023/07/13 00:57:34;;;;;;;;;;;27.50;46.30;;;;;;3051540;19;5099;-69
2023/07/13 00:58:34;;;;;;;;;;;27.40;46.20;;;;;;3051322;19;4615;-68
2023/07/13 00:59:36;;;;;;;;;;;27.40;46.20;;;;;;3051741;19;4363;-68
2023/07/13 01:00:36;;;;;;;;;;;27.40;46.20;;;;;;3053042;19;5042;-70
2023/07/13 01:01:37;;;;;;;;;;;27.50;46.10;;;;;;3052145;19;5342;-70
2023/07/13 01:02:39;;;;;;;;;;;27.50;46.30;;;;;;3051293;19;5138;-70
2023/07/13 01:03:40;;;;;;;;;;;27.40;46.20;;;;;;3052629;19;4613;-70
2023/07/13 01:04:43;;;;;;;;;;;27.50;46.20;;;;;;3052367;19;5158;-70
2023/07/13 01:05:44;;;;;;;;;;;27.50;46.20;;;;;;3052369;19;5130;-70
2023/07/13 01:06:46;;;;;;;;;;;27.50;46.10;;;;;;3050866;19;5278;-70
2023/07/13 01:07:48;;;;;;;;;;;27.50;46.20;;;;;;3051276;19;4928;-70
2023/07/13 01:08:49;;;;;;;;;;;27.50;46.10;;;;;;3051625;19;5145;-70
2023/07/13 01:09:50;;;;;;;;;;;27.50;46.00;;;;;;3052473;19;5149;-70
2023/07/13 01:10:54;;;;;;;;;;;27.40;46.10;;;;;;3052569;19;5583;-70
2023/07/13 01:11:55;;;;;;;;;;;27.20;46.00;;;;;;3052841;19;5065;-70
2023/07/13 01:12:55;;;;;;;;;;;27.40;46.00;;;;;;3052930;19;4406;-70
2023/07/13 01:13:56;;;;;;;;;;;27.50;46.10;;;;;;3052686;19;5044;-70
2023/07/13 01:14:58;;;;;;;;;;;27.40;46.10;;;;;;3052499;19;5103;-70
2023/07/13 01:15:59;;;;;;;;;;;27.50;46.20;;;;;;3051274;19;5042;-70
2023/07/13 01:17:00;;;;;;;;;;;27.50;46.20;;;;;;3050631;19;5090;-70
2023/07/13 01:18:00;;;;;;;;;;;27.40;46.10;;;;;;3051671;19;5176;-70
2023/07/13 01:19:01;;;;;;;;;;;27.40;46.10;;;;;;3051610;19;5022;-70
2023/07/13 01:20:02;;;;;;;;;;;27.40;46.20;;;;;;3050294;19;4771;-70
2023/07/13 01:21:04;;;;;;;;;;;27.70;46.30;;;;;;3051672;19;5061;-70
2023/07/13 01:22:15;;;;;;;;;;;27.40;46.00;;;;;;3052183;19;4428;-70
2023/07/13 01:23:16;;;;;;;;;;;27.40;46.00;;;;;;3051089;19;4988;-71
2023/07/13 01:24:16;;;;;;;;;;;27.40;45.90;;;;;;3051609;19;4509;-70
2023/07/13 01:25:18;;;;;;;;;;;27.40;46.00;;;;;;3052610;19;4696;-70
2023/07/13 01:26:19;;;;;;;;;;;27.40;45.90;;;;;;3051258;19;4516;-70
2023/07/13 01:27:24;;;;;;;;;;;27.40;46.00;;;;;;3050808;19;4358;-70
2023/07/13 01:28:26;;;;;;;;;;;27.40;45.90;;;;;;3051941;19;6157;-70
2023/07/13 01:29:27;;;;;;;;;;;27.40;45.90;;;;;;3051406;19;5006;-70
2023/07/13 01:30:27;;;;;;;;;;;27.40;45.80;;;;;;3050388;19;5143;-70
2023/07/13 01:31:28;;;;;;;;;;;27.40;46.00;;;;;;3050854;19;4372;-70
2023/07/13 01:32:31;;;;;;;;;;;27.40;45.90;;;;;;3050852;19;5010;-70
2023/07/13 01:33:31;;;;;;;;;;;27.60;45.90;;;;;;3051151;19;5156;-71
2023/07/13 01:34:32;;;;;;;;;;;27.40;45.80;;;;;;3051072;19;5887;-70
2023/07/13 01:35:33;;;;;;;;;;;27.40;45.80;;;;;;3051330;19;5417;-71
2023/07/13 01:36:34;;;;;;;;;;;27.40;45.70;;;;;;3052172;19;5127;-70
2023/07/13 01:37:35;;;;;;;;;;;27.40;45.80;;;;;;3051971;19;4973;-70
2023/07/13 01:38:36;;;;;;;;;;;27.10;45.60;;;;;;3051520;19;4965;-70
2023/07/13 01:39:37;;;;;;;;;;;27.40;45.80;;;;;;3050175;19;4388;-71
2023/07/13 01:40:38;;;;;;;;;;;27.40;45.80;;;;;;3051200;19;5117;-70
